Tanagra Air Base, Greece

4:00 AM EET on February 10, 2016 (GMT +0200)
Oinofyta Greece | | Change Station
CLOSE
Current Station
Personal Weather Station
Location: Oinofyta, VOIOTIA
Elevation: 354 ft
Nearby Weather Stations

Elev 354 ft 38.31 °N, 23.64 °E | Updated 7 seconds ago

Partly Cloudy
Partly Cloudy
50.0 °F
Feels Like 50.0 °F
N
2.3
Wind Variable Wind from SW
Gusts 8.3 mph

Today
High -- | Low -- °F
--% Chance of Precip.
Yesterday
High -- | Low -- °F
Precip. -- in
Pressure 30.06 in
Visibility 5.6 miles
Clouds Few 2500 ft
Dew Point 48 °F
Humidity 92%
Rainfall 0.00 in
Snow Depth Not available.
7:22 AM 5:57 PM
Waxing Crescent, 3% visible
METAR LGEL 100150Z 00000KT 9000 FEW025 05/04 Q1018
Pressure 30.06 in
Visibility 5.6 miles
Clouds Few 2500 ft
Dew Point 48 °F
Humidity 92%
Rainfall 0.00 in
Snow Depth Not available.
7:22 AM 5:57 PM
Waxing Crescent, 3% visible
METAR LGEL 100150Z 00000KT 9000 FEW025 05/04 Q1018

10-Day Weather Forecast

Almanac

Astronomy

Feb. 10, 2016 Rise Set
Actual Time
Civil Twilight
Nautical Twilight
Astronomical Twilight
Moon
Length of Visible Light
Length of Day
Tomorrow will be .
, % of the Moon is Illuminated

Today's Extremes

Country Highs Country Lows

Community

WunderPhotos

Upload Photos

1,891,760 photos uploaded!

WunderBlog® & News

Nearby

Air Quality

  Air Quality AQ Index Pollutant
Not available.

Snow Depth

Station Depth Elevation

Earthquake Activity

City Distance Mag. Time & Date
Minimum magnitude displayed is 2.5.

Coastal Water Temperatures

Place Temperature

Stations

Nearby Weather Stations

Station Location Temp. Windchill Dew Point Humidity Wind Precip. Elev Updated Type